createdAt,value
2022-09-26T00:01:33.863Z,3.78
2022-09-26T00:04:07.818Z,4.65
2022-09-26T00:06:35.197Z,2.90
2022-09-26T00:09:02.595Z,6.20
2022-09-26T00:11:32.665Z,5.88
2022-09-26T00:14:04.179Z,8.40
2022-09-26T00:16:31.392Z,5.82
2022-09-26T00:18:59.286Z,10.30
2022-09-26T00:21:28.479Z,7.28
2022-09-26T00:23:56.632Z,14.55
2022-09-26T00:26:25.439Z,8.40
2022-09-26T00:28:53.571Z,14.13
2022-09-26T00:31:25.880Z,6.68
2022-09-26T00:33:53.996Z,9.07
2022-09-26T00:36:26.863Z,10.65
2022-09-26T00:39:04.327Z,7.78
2022-09-26T00:41:32.194Z,7.32
2022-09-26T00:43:59.294Z,10.05
2022-09-26T00:46:29.330Z,10.27
2022-09-26T00:49:21.573Z,10.57
2022-09-26T00:52:03.455Z,9.85
2022-09-26T00:54:32.044Z,8.40
2022-09-26T00:57:05.483Z,8.00
2022-09-26T00:59:40.108Z,10.27
2022-09-26T01:02:07.480Z,16.33
2022-09-26T01:04:38.531Z,5.20
2022-09-26T01:07:12.401Z,5.15
2022-09-26T01:09:39.730Z,8.82
2022-09-26T01:12:09.202Z,10.35
2022-09-26T01:14:39.504Z,5.15
2022-09-26T01:17:07.816Z,6.55
2022-09-26T01:19:51.521Z,14.43
2022-09-26T01:22:28.153Z,7.85
2022-09-26T01:25:22.865Z,12.05
2022-09-26T01:28:35.359Z,11.75
2022-09-26T01:31:14.926Z,9.48
2022-09-26T01:34:04.507Z,10.70
2022-09-26T01:36:50.663Z,5.70
2022-09-26T01:39:30.440Z,6.93
2022-09-26T01:42:15.449Z,10.00
2022-09-26T01:45:24.308Z,8.30
2022-09-26T01:47:55.915Z,7.22
2022-09-26T01:50:29.760Z,5.97
2022-09-26T01:53:10.372Z,6.03
2022-09-26T01:55:47.345Z,10.70
2022-09-26T01:58:33.488Z,5.85
2022-09-26T02:01:09.539Z,9.35
2022-09-26T02:03:40.254Z,9.73
2022-09-26T02:06:16.974Z,7.57
2022-09-26T02:09:01.989Z,4.68
2022-09-26T02:11:29.736Z,4.55
2022-09-26T02:14:30.799Z,4.57
2022-09-26T02:17:05.801Z,4.18
2022-09-26T02:19:41.923Z,4.45
2022-09-26T02:22:10.057Z,4.13
2022-09-26T02:24:39.500Z,5.65
2022-09-26T02:27:07.786Z,4.18
2022-09-26T02:29:35.207Z,8.30
2022-09-26T02:32:13.018Z,4.93
2022-09-26T02:34:42.664Z,3.13
2022-09-26T02:37:13.687Z,3.83
2022-09-26T02:39:42.793Z,4.47
2022-09-26T02:42:36.941Z,4.80
2022-09-26T02:45:36.757Z,3.33
2022-09-26T02:48:40.162Z,2.88
2022-09-26T02:51:31.068Z,3.50
2022-09-26T02:54:14.588Z,3.38
2022-09-26T02:57:07.172Z,3.83
2022-09-26T02:59:57.955Z,3.97
2022-09-26T03:03:08.134Z,3.60
2022-09-26T03:05:40.753Z,5.95
2022-09-26T03:08:16.189Z,4.00
2022-09-26T03:10:44.791Z,4.35
2022-09-26T03:13:16.183Z,4.63
2022-09-26T03:15:48.884Z,2.75
2022-09-26T03:18:21.180Z,3.30
2022-09-26T03:20:49.069Z,4.03
2022-09-26T03:23:17.389Z,4.53
2022-09-26T03:25:46.560Z,5.45
2022-09-26T03:28:17.593Z,4.03
2022-09-26T03:30:46.045Z,11.30
2022-09-26T03:33:26.669Z,6.53
2022-09-26T03:35:55.509Z,7.53
2022-09-26T03:38:23.150Z,6.68
2022-09-26T03:41:00.503Z,7.97
2022-09-26T03:43:57.853Z,4.70
2022-09-26T03:46:36.265Z,5.70
2022-09-26T03:49:07.009Z,4.13
2022-09-26T03:51:35.522Z,6.63
2022-09-26T03:54:02.978Z,4.53
2022-09-26T03:56:30.292Z,4.75
2022-09-26T03:58:58.194Z,6.35
2022-09-26T04:01:25.649Z,4.40
2022-09-26T04:03:53.171Z,2.85
2022-09-26T04:06:21.396Z,5.32
2022-09-26T04:08:52.186Z,4.45
2022-09-26T04:11:24.802Z,3.47
2022-09-26T04:13:54.202Z,4.20
2022-09-26T04:16:28.421Z,5.97
2022-09-26T04:19:06.483Z,3.63
2022-09-26T04:21:35.663Z,4.15
2022-09-26T04:24:03.652Z,4.72
2022-09-26T04:26:31.367Z,3.80
2022-09-26T04:28:58.831Z,4.43
2022-09-26T04:31:46.367Z,3.88
2022-09-26T04:34:17.837Z,3.60
2022-09-26T04:36:45.618Z,3.97
2022-09-26T04:39:13.898Z,4.78
2022-09-26T04:41:41.167Z,5.25
2022-09-26T04:44:10.999Z,4.28
2022-09-26T04:46:38.618Z,3.85
2022-09-26T04:49:06.830Z,3.65
2022-09-26T04:51:34.360Z,5.15
2022-09-26T04:54:01.690Z,4.80
2022-09-26T04:56:33.459Z,4.57
2022-09-26T04:59:00.826Z,3.78
2022-09-26T05:01:36.698Z,4.07
2022-09-26T05:04:10.011Z,3.47
2022-09-26T05:06:37.545Z,6.00
2022-09-26T05:09:06.313Z,4.43
2022-09-26T05:11:52.509Z,5.60
2022-09-26T05:14:19.836Z,5.85
2022-09-26T05:16:48.075Z,5.80
2022-09-26T05:19:17.106Z,5.18
2022-09-26T05:22:02.391Z,7.85
2022-09-26T05:24:48.367Z,6.25
2022-09-26T05:27:18.788Z,5.80
2022-09-26T05:29:46.996Z,6.32
2022-09-26T05:32:15.379Z,6.03
2022-09-26T05:34:43.771Z,7.45
2022-09-26T05:37:15.291Z,5.85
2022-09-26T05:40:01.606Z,6.40
2022-09-26T05:42:30.417Z,5.75
2022-09-26T05:44:57.685Z,5.88
2022-09-26T05:47:27.291Z,5.70
2022-09-26T05:49:56.732Z,7.88
2022-09-26T05:52:25.207Z,6.10
2022-09-26T05:54:52.943Z,6.55
2022-09-26T05:57:59.185Z,6.03
2022-09-26T06:00:40.719Z,5.20
2022-09-26T06:03:09.024Z,4.93
2022-09-26T06:05:45.540Z,4.97
2022-09-26T06:08:17.571Z,4.32
2022-09-26T06:10:49.335Z,5.10
2022-09-26T06:13:21.577Z,5.00
2022-09-26T06:15:53.207Z,4.82
2022-09-26T06:18:21.384Z,4.35
2022-09-26T06:20:48.588Z,4.15
2022-09-26T06:23:16.282Z,5.53
2022-09-26T06:25:45.973Z,4.18
2022-09-26T06:28:13.641Z,5.05
2022-09-26T06:30:41.126Z,7.93
2022-09-26T06:33:14.927Z,8.90
2022-09-26T06:36:14.724Z,5.07
2022-09-26T06:38:42.663Z,6.30
2022-09-26T06:41:16.693Z,6.55
2022-09-26T06:43:45.489Z,6.40
2022-09-26T06:46:31.576Z,7.55
2022-09-26T06:49:12.244Z,6.00
2022-09-26T06:51:43.587Z,6.55
2022-09-26T06:54:11.166Z,7.00
2022-09-26T06:56:38.480Z,6.35
2022-09-26T06:59:06.050Z,6.60
2022-09-26T07:01:35.669Z,7.85
2022-09-26T07:04:11.867Z,6.57
2022-09-26T07:06:44.935Z,6.40
2022-09-26T07:09:13.197Z,5.97
2022-09-26T07:12:16.931Z,5.55
2022-09-26T07:14:44.572Z,6.85
2022-09-26T07:17:30.734Z,8.27
2022-09-26T07:20:15.320Z,6.78
2022-09-26T07:22:56.085Z,6.80
2022-09-26T07:25:23.398Z,8.70
2022-09-26T07:27:52.871Z,9.13
2022-09-26T07:30:24.787Z,4.50
2022-09-26T07:33:08.302Z,7.70
2022-09-26T07:35:44.581Z,6.47
2022-09-26T07:38:13.335Z,5.10
2022-09-26T07:40:43.317Z,7.63
2022-09-26T07:43:53.346Z,6.30
2022-09-26T07:46:16.951Z,8.40
2022-09-26T07:49:21.190Z,6.53
2022-09-26T07:51:58.344Z,7.47
2022-09-26T07:54:35.821Z,5.82
2022-09-26T07:57:38.416Z,11.05
2022-09-26T08:00:26.540Z,6.75
2022-09-26T08:03:02.864Z,10.40
2022-09-26T08:05:31.857Z,5.55
2022-09-26T08:07:59.412Z,5.45
2022-09-26T08:10:46.168Z,5.80
2022-09-26T08:13:34.400Z,5.93
2022-09-26T08:16:20.825Z,5.95
2022-09-26T08:18:52.307Z,7.45
2022-09-26T08:21:21.095Z,4.63
2022-09-26T08:23:51.125Z,10.20
2022-09-26T08:26:33.672Z,4.80
2022-09-26T08:29:34.506Z,6.43
2022-09-26T08:32:04.487Z,6.20
2022-09-26T08:34:35.457Z,9.10
2022-09-26T08:37:31.575Z,4.85
2022-09-26T08:40:17.876Z,6.25
2022-09-26T08:43:30.111Z,6.20
2022-09-26T08:47:01.108Z,6.68
2022-09-26T08:50:00.615Z,5.93
2022-09-26T08:52:43.505Z,8.48
2022-09-26T08:55:18.196Z,11.68
2022-09-26T08:57:55.671Z,6.78
2022-09-26T09:00:26.027Z,8.98
2022-09-26T09:03:28.664Z,7.50
2022-09-26T09:06:06.386Z,4.55
2022-09-26T09:08:41.008Z,7.50
2022-09-26T09:11:24.700Z,6.88
2022-09-26T09:14:14.093Z,7.10
2022-09-26T09:17:24.020Z,4.75
2022-09-26T09:20:38.851Z,7.65
2022-09-26T09:23:59.907Z,8.40
2022-09-26T09:29:56.853Z,6.63
2022-09-26T09:35:40.369Z,5.28
2022-09-26T09:38:32.367Z,5.70
2022-09-26T09:41:25.228Z,5.82
2022-09-26T09:43:57.335Z,5.93
2022-09-26T09:46:42.760Z,5.20
2022-09-26T09:49:10.806Z,6.10
2022-09-26T09:51:56.557Z,5.93
2022-09-26T09:54:47.191Z,9.48
2022-09-26T09:57:45.981Z,6.90
2022-09-26T10:00:25.164Z,4.60
2022-09-26T10:03:37.963Z,6.88
2022-09-26T10:06:09.453Z,8.00
2022-09-26T10:08:54.140Z,5.15
2022-09-26T10:11:43.030Z,6.65
2022-09-26T10:14:42.305Z,8.35
2022-09-26T10:17:09.591Z,4.03
2022-09-26T10:19:45.904Z,4.10
2022-09-26T10:22:45.215Z,5.82
2022-09-26T10:25:28.054Z,6.20
2022-09-26T10:27:57.854Z,5.03
2022-09-26T10:30:34.246Z,4.57
2022-09-26T10:33:24.413Z,5.28
2022-09-26T10:36:36.601Z,3.78
2022-09-26T10:39:45.171Z,5.15
2022-09-26T10:42:23.196Z,6.22
2022-09-26T10:44:58.173Z,3.58
2022-09-26T10:47:47.580Z,4.60
2022-09-26T10:50:35.789Z,4.88
2022-09-26T10:53:14.215Z,5.55
2022-09-26T10:55:50.170Z,5.22
2022-09-26T10:58:26.362Z,5.65
2022-09-26T11:01:00.949Z,5.10
2022-09-26T11:03:46.266Z,3.53
2022-09-26T11:06:33.150Z,5.95
2022-09-26T11:09:14.103Z,7.30
2022-09-26T11:11:43.499Z,4.80
2022-09-26T11:14:11.030Z,5.97
2022-09-26T11:16:44.496Z,5.03
2022-09-26T11:19:44.391Z,3.20
2022-09-26T11:22:22.371Z,5.20
2022-09-26T11:25:25.789Z,4.65
2022-09-26T11:28:07.508Z,5.85
2022-09-26T11:31:43.030Z,3.72
2022-09-26T11:34:37.563Z,4.60
2022-09-26T11:37:15.567Z,6.72
2022-09-26T11:40:17.864Z,5.85
2022-09-26T11:43:13.694Z,6.72
2022-09-26T11:45:53.423Z,8.15
2022-09-26T11:49:03.128Z,8.30
2022-09-26T11:52:19.376Z,5.95
2022-09-26T11:55:05.359Z,8.18
2022-09-26T11:58:05.828Z,8.18
2022-09-26T12:01:16.787Z,5.60
2022-09-26T12:03:53.378Z,7.88
2022-09-26T12:06:43.749Z,6.20
2022-09-26T12:09:18.571Z,6.32
2022-09-26T12:12:06.362Z,6.97
2022-09-26T12:14:51.219Z,5.82
2022-09-26T12:17:44.150Z,2.55
2022-09-26T12:20:24.662Z,8.30
2022-09-26T12:23:29.820Z,6.72
2022-09-26T12:26:21.366Z,9.38
2022-09-26T12:29:14.488Z,5.28
2022-09-26T12:32:00.550Z,9.35
2022-09-26T12:35:03.826Z,10.40
2022-09-26T12:38:08.795Z,14.25
2022-09-26T12:41:05.736Z,12.88
2022-09-26T12:43:54.463Z,13.35
2022-09-26T12:46:40.238Z,6.80
2022-09-26T12:49:39.013Z,6.32
2022-09-26T12:52:32.286Z,14.80
2022-09-26T12:55:16.194Z,7.63
2022-09-26T12:57:48.273Z,3.08
2022-09-26T13:00:23.204Z,7.65
2022-09-26T13:03:21.855Z,7.70
2022-09-26T13:06:10.732Z,7.50
2022-09-26T13:09:08.101Z,4.13
2022-09-26T13:11:46.038Z,6.30
2022-09-26T13:14:42.325Z,10.82
2022-09-26T13:17:22.327Z,5.18
2022-09-26T13:19:51.899Z,9.98
2022-09-26T13:22:41.804Z,4.85
2022-09-26T13:25:12.230Z,8.38
2022-09-26T13:27:44.687Z,4.22
2022-09-26T13:30:29.466Z,8.63
2022-09-26T13:35:31.957Z,10.77
2022-09-26T13:38:19.582Z,7.72
2022-09-26T13:41:04.547Z,5.85
2022-09-26T13:46:18.207Z,9.77
2022-09-26T13:48:58.199Z,4.38
2022-09-26T13:51:39.341Z,6.72
2022-09-26T13:54:44.847Z,6.13
2022-09-26T13:57:32.816Z,5.97
2022-09-26T14:00:00.196Z,5.78
2022-09-26T14:02:30.093Z,6.70
2022-09-26T14:05:03.413Z,7.00
2022-09-26T14:08:01.367Z,6.82
2022-09-26T14:10:38.228Z,6.57
2022-09-26T14:13:11.799Z,5.75
2022-09-26T14:15:50.671Z,11.10
2022-09-26T14:18:48.921Z,9.45
2022-09-26T14:21:33.714Z,8.57
2022-09-26T14:26:57.765Z,9.05
2022-09-26T14:29:27.978Z,5.93
2022-09-26T14:32:20.576Z,6.47
2022-09-26T14:34:57.259Z,5.63
2022-09-26T14:37:25.622Z,6.30
2022-09-26T14:40:08.129Z,6.60
2022-09-26T14:43:12.904Z,5.07
2022-09-26T14:46:06.031Z,5.15
2022-09-26T14:48:36.560Z,4.30
2022-09-26T14:51:25.201Z,3.53
2022-09-26T14:54:00.976Z,5.90
2022-09-26T14:56:30.154Z,5.70
2022-09-26T14:59:17.334Z,5.70
2022-09-26T15:01:45.414Z,4.38
2022-09-26T15:04:20.681Z,6.65
2022-09-26T15:06:52.639Z,3.75
2022-09-26T15:09:28.070Z,4.28
2022-09-26T15:11:59.973Z,2.70
2022-09-26T15:14:43.534Z,6.93
2022-09-26T15:17:23.522Z,6.53
2022-09-26T15:19:55.232Z,7.80
2022-09-26T15:22:29.593Z,3.72
2022-09-26T15:25:32.225Z,3.55
2022-09-26T15:28:01.556Z,4.10
2022-09-26T15:30:40.752Z,6.18
2022-09-26T15:33:17.745Z,4.82
2022-09-26T15:35:54.074Z,5.45
2022-09-26T15:38:26.866Z,7.50
2022-09-26T15:41:03.449Z,9.00
2022-09-26T15:43:35.834Z,5.90
2022-09-26T15:46:08.946Z,6.65
2022-09-26T15:48:46.045Z,5.68
2022-09-26T15:51:36.993Z,9.90
2022-09-26T15:54:11.368Z,8.13
2022-09-26T15:56:43.678Z,7.45
2022-09-26T15:59:33.893Z,8.93
2022-09-26T16:02:03.853Z,8.05
2022-09-26T16:04:33.424Z,12.40
2022-09-26T16:07:20.831Z,8.48
2022-09-26T16:09:51.588Z,7.95
2022-09-26T16:12:22.845Z,7.25
2022-09-26T16:14:55.235Z,11.10
2022-09-26T16:17:26.418Z,7.85
2022-09-26T16:20:17.011Z,5.35
2022-09-26T16:23:00.328Z,6.72
2022-09-26T16:25:38.000Z,4.97
2022-09-26T16:28:11.846Z,6.70
2022-09-26T16:30:45.951Z,7.97
2022-09-26T16:33:16.593Z,17.75
2022-09-26T16:35:46.930Z,13.63
2022-09-26T16:38:46.077Z,18.52
2022-09-26T16:41:59.615Z,13.02
2022-09-26T16:44:35.969Z,10.73
2022-09-26T16:47:15.585Z,11.07
2022-09-26T16:49:46.508Z,8.68
2022-09-26T16:52:34.621Z,8.50
2022-09-26T16:55:07.152Z,8.43
2022-09-26T16:58:25.899Z,9.50
2022-09-26T17:01:12.554Z,9.07
2022-09-26T17:03:45.361Z,8.60
2022-09-26T17:08:41.842Z,9.48
2022-09-26T17:11:15.526Z,12.45
2022-09-26T17:13:44.027Z,9.47
2022-09-26T17:16:13.217Z,11.23
2022-09-26T17:18:43.540Z,14.40
2022-09-26T17:21:12.505Z,13.48
2022-09-26T17:23:42.209Z,13.63
2022-09-26T17:26:21.815Z,27.20
2022-09-26T17:28:51.287Z,23.45
2022-09-26T17:31:20.238Z,21.17
2022-09-26T17:33:52.548Z,13.27
2022-09-26T17:36:27.472Z,21.05
2022-09-26T17:39:02.608Z,20.88
2022-09-26T17:41:34.561Z,9.02
2022-09-26T17:44:02.366Z,16.05
2022-09-26T17:46:30.400Z,15.73
2022-09-26T17:48:59.473Z,14.93
2022-09-26T17:51:29.499Z,12.93
2022-09-26T17:53:58.531Z,13.23
2022-09-26T17:56:26.681Z,15.25
2022-09-26T17:58:54.966Z,12.68
2022-09-26T18:01:25.441Z,7.97
2022-09-26T18:03:58.008Z,14.00
2022-09-26T18:06:31.816Z,8.15
2022-09-26T18:09:07.800Z,9.98
2022-09-26T18:11:36.466Z,9.07
2022-09-26T18:14:07.021Z,8.52
2022-09-26T18:16:34.557Z,9.50
2022-09-26T18:19:16.739Z,9.48
2022-09-26T18:21:44.090Z,10.23
2022-09-26T18:24:19.965Z,9.40
2022-09-26T18:26:50.861Z,9.52
2022-09-26T18:29:29.860Z,11.00
2022-09-26T18:31:59.277Z,10.45
2022-09-26T18:34:26.562Z,10.60
2022-09-26T18:37:00.588Z,6.35
2022-09-26T18:39:40.307Z,7.18
2022-09-26T18:42:09.992Z,8.80
2022-09-26T18:44:37.558Z,9.23
2022-09-26T18:47:11.613Z,10.60
2022-09-26T18:49:39.201Z,8.15
2022-09-26T18:52:13.070Z,7.68
2022-09-26T18:54:45.023Z,11.77
2022-09-26T18:57:31.726Z,13.98
2022-09-26T19:00:02.842Z,9.38
2022-09-26T19:02:36.940Z,10.57
2022-09-26T19:05:06.002Z,10.95
2022-09-26T19:07:33.853Z,9.00
2022-09-26T19:10:02.694Z,8.68
2022-09-26T19:12:31.511Z,8.45
2022-09-26T19:14:59.012Z,10.27
2022-09-26T19:17:26.753Z,8.77
2022-09-26T19:19:53.885Z,8.05
2022-09-26T19:22:21.394Z,9.02
2022-09-26T19:24:59.773Z,8.73
2022-09-26T19:27:30.758Z,5.47
2022-09-26T19:30:31.480Z,9.88
2022-09-26T19:32:59.409Z,10.68
2022-09-26T19:35:36.432Z,9.25
2022-09-26T19:38:26.552Z,9.02
2022-09-26T19:40:54.063Z,8.02
2022-09-26T19:43:22.429Z,7.47
2022-09-26T19:45:53.871Z,9.10
2022-09-26T19:48:23.165Z,7.82
2022-09-26T19:50:52.600Z,5.50
2022-09-26T19:53:21.490Z,7.03
2022-09-26T19:55:50.597Z,7.50
2022-09-26T19:58:25.274Z,6.78
2022-09-26T20:00:56.147Z,6.77
2022-09-26T20:03:29.449Z,6.05
2022-09-26T20:05:57.109Z,6.45
2022-09-26T20:08:26.929Z,6.78
2022-09-26T20:10:55.886Z,6.53
2022-09-26T20:13:24.113Z,7.32
2022-09-26T20:15:51.704Z,4.57
2022-09-26T20:18:22.424Z,6.25
2022-09-26T20:20:55.926Z,7.40
2022-09-26T20:23:26.780Z,5.07
2022-09-26T20:25:56.577Z,6.65
2022-09-26T20:28:24.925Z,5.22
2022-09-26T20:30:52.544Z,4.88
2022-09-26T20:33:22.839Z,6.18
2022-09-26T20:36:01.691Z,8.27
2022-09-26T20:38:38.588Z,7.80
2022-09-26T20:41:13.539Z,4.10
2022-09-26T20:43:47.781Z,4.72
2022-09-26T20:46:15.375Z,5.10
2022-09-26T20:48:45.680Z,7.70
2022-09-26T20:51:20.694Z,6.22
2022-09-26T20:53:49.436Z,5.05
2022-09-26T20:56:21.978Z,6.63
2022-09-26T20:58:50.877Z,5.38
2022-09-26T21:01:20.205Z,6.07
2022-09-26T21:03:51.225Z,5.95
2022-09-26T21:06:24.273Z,5.70
2022-09-26T21:08:52.443Z,5.43
2022-09-26T21:11:22.056Z,5.63
2022-09-26T21:13:49.763Z,4.38
2022-09-26T21:16:22.463Z,4.75
2022-09-26T21:18:52.186Z,3.97
2022-09-26T21:21:26.889Z,5.53
2022-09-26T21:24:02.025Z,5.20
2022-09-26T21:26:31.490Z,4.32
2022-09-26T21:28:58.915Z,5.18
2022-09-26T21:31:32.295Z,5.68
2022-09-26T21:34:00.877Z,5.67
2022-09-26T21:36:35.927Z,4.70
2022-09-26T21:39:03.959Z,3.83
2022-09-26T21:41:31.237Z,3.90
2022-09-26T21:44:08.816Z,3.40
2022-09-26T21:46:36.445Z,4.32
2022-09-26T21:49:03.977Z,4.35
2022-09-26T21:51:32.856Z,3.78
2022-09-26T21:54:08.319Z,4.60
2022-09-26T21:56:49.154Z,4.28
2022-09-26T21:59:20.321Z,4.25
2022-09-26T22:01:49.070Z,4.95
2022-09-26T22:04:16.761Z,5.80
2022-09-26T22:06:44.053Z,5.65
2022-09-26T22:09:11.838Z,3.50
2022-09-26T22:11:40.983Z,4.40
2022-09-26T22:14:09.631Z,3.42
2022-09-26T22:16:36.969Z,4.53
2022-09-26T22:19:05.509Z,4.22
2022-09-26T22:21:33.286Z,4.13
2022-09-26T22:24:00.942Z,4.05
2022-09-26T22:26:28.418Z,3.88
2022-09-26T22:28:55.743Z,3.67
2022-09-26T22:31:22.993Z,4.47
2022-09-26T22:33:50.298Z,4.38
2022-09-26T22:36:17.673Z,3.75
2022-09-26T22:38:45.268Z,2.97
2022-09-26T22:41:12.713Z,4.85
2022-09-26T22:43:40.162Z,4.78
2022-09-26T22:46:10.346Z,4.65
2022-09-26T22:48:43.101Z,4.45
2022-09-26T22:51:10.456Z,3.97
2022-09-26T22:53:39.916Z,3.88
2022-09-26T22:56:09.464Z,3.95
2022-09-26T22:58:48.449Z,3.72
2022-09-26T23:01:22.662Z,3.85
2022-09-26T23:03:53.186Z,4.50
2022-09-26T23:06:22.141Z,4.68
2022-09-26T23:08:49.527Z,3.38
2022-09-26T23:11:18.698Z,3.20
2022-09-26T23:13:47.005Z,4.35
2022-09-26T23:16:20.457Z,3.85
2022-09-26T23:18:49.055Z,3.45
2022-09-26T23:21:24.366Z,4.20
2022-09-26T23:23:55.126Z,2.60
2022-09-26T23:26:32.082Z,3.67
2022-09-26T23:29:00.310Z,3.17
2022-09-26T23:31:28.775Z,2.40
2022-09-26T23:33:57.505Z,2.92
2022-09-26T23:36:26.190Z,3.55
2022-09-26T23:38:55.070Z,2.92
2022-09-26T23:41:22.390Z,2.85
2022-09-26T23:43:50.162Z,5.72
2022-09-26T23:46:17.717Z,2.75
2022-09-26T23:48:46.112Z,4.03
2022-09-26T23:51:13.416Z,2.58
2022-09-26T23:53:40.610Z,3.47
2022-09-26T23:56:12.386Z,3.47
2022-09-26T23:58:40.245Z,2.97
